sensor_id;sensor_type;location;lat;lon;timestamp;pressure;altitude;pressure_sealevel;temperature;humidity
24825;BME280;12910;57.690;11.974;2023-03-31T00:00:09;99173.31;;;2.04;100.00
24825;BME280;12910;57.690;11.974;2023-03-31T00:02:36;99167.50;;;2.07;100.00
24825;BME280;12910;57.690;11.974;2023-03-31T00:05:02;99173.31;;;2.04;100.00
24825;BME280;12910;57.690;11.974;2023-03-31T00:07:27;99175.88;;;2.06;100.00
24825;BME280;12910;57.690;11.974;2023-03-31T00:09:52;99157.34;;;2.05;100.00
24825;BME280;12910;57.690;11.974;2023-03-31T00:12:22;99174.25;;;2.08;100.00
24825;BME280;12910;57.690;11.974;2023-03-31T00:14:47;99165.81;;;2.07;100.00
24825;BME280;12910;57.690;11.974;2023-03-31T00:17:13;99165.69;;;2.02;100.00
24825;BME280;12910;57.690;11.974;2023-03-31T00:19:39;99165.66;;;2.01;100.00
24825;BME280;12910;57.690;11.974;2023-03-31T00:22:06;99158.84;;;1.98;100.00
24825;BME280;12910;57.690;11.974;2023-03-31T00:24:32;99168.97;;;1.98;100.00
24825;BME280;12910;57.690;11.974;2023-03-31T00:26:59;99167.16;;;1.94;100.00
24825;BME280;12910;57.690;11.974;2023-03-31T00:29:25;99170.63;;;1.98;100.00
24825;BME280;12910;57.690;11.974;2023-03-31T00:31:50;99170.72;;;2.01;100.00
24825;BME280;12910;57.690;11.974;2023-03-31T00:34:16;99169.94;;;2.03;100.00
24825;BME280;12910;57.690;11.974;2023-03-31T00:36:41;99153.03;;;2.01;100.00
24825;BME280;12910;57.690;11.974;2023-03-31T00:39:15;99163.25;;;2.06;100.00
24825;BME280;12910;57.690;11.974;2023-03-31T00:41:42;99166.59;;;2.05;100.00
24825;BME280;12910;57.690;11.974;2023-03-31T00:52:08;99157.22;;;2.00;100.00
24825;BME280;12910;57.690;11.974;2023-03-31T00:54:39;99153.00;;;1.99;100.00
24825;BME280;12910;57.690;11.974;2023-03-31T00:57:07;99148.88;;;2.03;100.00
24825;BME280;12910;57.690;11.974;2023-03-31T00:59:39;99134.28;;;1.93;100.00
24825;BME280;12910;57.690;11.974;2023-03-31T01:02:07;99155.69;;;2.07;100.00
24825;BME280;12910;57.690;11.974;2023-03-31T01:04:47;99154.81;;;2.05;100.00
24825;BME280;12910;57.690;11.974;2023-03-31T01:09:43;99154.88;;;2.08;100.00
24825;BME280;12910;57.690;11.974;2023-03-31T01:12:12;99146.34;;;2.03;100.00
24825;BME280;12910;57.690;11.974;2023-03-31T01:14:40;99145.59;;;2.07;100.00
24825;BME280;12910;57.690;11.974;2023-03-31T01:17:06;99147.97;;;2.01;100.00
24825;BME280;12910;57.690;11.974;2023-03-31T01:39:06;99126.34;;;2.11;100.00
24825;BME280;12910;57.690;11.974;2023-03-31T01:44:29;99137.19;;;2.08;100.00
24825;BME280;12910;57.690;11.974;2023-03-31T01:47:02;99127.97;;;2.09;100.00
24825;BME280;12910;57.690;11.974;2023-03-31T01:49:50;99127.97;;;2.09;100.00
24825;BME280;12910;57.690;11.974;2023-03-31T01:52:42;99127.97;;;2.09;100.00
24825;BME280;12910;57.690;11.974;2023-03-31T01:57:51;99128.75;;;2.06;100.00
24825;BME280;12910;57.690;11.974;2023-03-31T02:00:24;99116.94;;;2.05;100.00
24825;BME280;12910;57.690;11.974;2023-03-31T02:03:08;99117.91;;;2.12;100.00
24825;BME280;12910;57.690;11.974;2023-03-31T02:05:41;99121.28;;;2.11;100.00
24825;BME280;12910;57.690;11.974;2023-03-31T02:08:19;99129.63;;;2.08;100.00
24825;BME280;12910;57.690;11.974;2023-03-31T02:10:48;99122.94;;;2.10;100.00
24825;BME280;12910;57.690;11.974;2023-03-31T02:13:15;99126.25;;;2.08;100.00
24825;BME280;12910;57.690;11.974;2023-03-31T02:15:45;99118.47;;;2.00;100.00
24825;BME280;12910;57.690;11.974;2023-03-31T02:18:15;99132.16;;;2.08;100.00
24825;BME280;12910;57.690;11.974;2023-03-31T02:20:43;99129.63;;;2.08;100.00
24825;BME280;12910;57.690;11.974;2023-03-31T02:23:12;99125.47;;;2.10;100.00
24825;BME280;12910;57.690;11.974;2023-03-31T02:25:43;99127.97;;;2.09;100.00
24825;BME280;12910;57.690;11.974;2023-03-31T02:28:16;99128.03;;;2.12;100.00
24825;BME280;12910;57.690;11.974;2023-03-31T02:33:43;99113.41;;;2.00;100.00
24825;BME280;12910;57.690;11.974;2023-03-31T02:36:08;99116.84;;;2.02;100.00
24825;BME280;12910;57.690;11.974;2023-03-31T02:38:43;99110.16;;;2.04;100.00
24825;BME280;12910;57.690;11.974;2023-03-31T02:41:10;99108.47;;;2.05;100.00
24825;BME280;12910;57.690;11.974;2023-03-31T02:43:36;99110.16;;;2.04;100.00
24825;BME280;12910;57.690;11.974;2023-03-31T02:46:01;99107.69;;;2.07;100.00
24825;BME280;12910;57.690;11.974;2023-03-31T02:48:30;99114.44;;;2.07;100.00
24825;BME280;12910;57.690;11.974;2023-03-31T03:07:38;99095.00;;;2.04;100.00
24825;BME280;12910;57.690;11.974;2023-03-31T03:12:49;99095.78;;;2.01;100.00
24825;BME280;12910;57.690;11.974;2023-03-31T03:15:34;99091.72;;;2.08;100.00
24825;BME280;12910;57.690;11.974;2023-03-31T03:18:02;99094.22;;;2.07;100.00
24825;BME280;12910;57.690;11.974;2023-03-31T03:20:28;99093.28;;;2.03;100.00
24825;BME280;12910;57.690;11.974;2023-03-31T03:22:54;99089.06;;;2.03;100.00
24825;BME280;12910;57.690;11.974;2023-03-31T03:25:20;99087.34;;;2.02;100.00
24825;BME280;12910;57.690;11.974;2023-03-31T03:27:46;99084.78;;;2.01;100.00
24825;BME280;12910;57.690;11.974;2023-03-31T03:30:12;99081.47;;;2.02;100.00
24825;BME280;12910;57.690;11.974;2023-03-31T03:32:38;99090.75;;;2.03;100.00
24825;BME280;12910;57.690;11.974;2023-03-31T03:35:04;99086.50;;;2.02;100.00
24825;BME280;12910;57.690;11.974;2023-03-31T03:37:31;99080.63;;;2.01;100.00
24825;BME280;12910;57.690;11.974;2023-03-31T03:39:56;99076.41;;;2.02;100.00
24825;BME280;12910;57.690;11.974;2023-03-31T03:42:22;99082.28;;;2.01;100.00
24825;BME280;12910;57.690;11.974;2023-03-31T03:44:48;99084.66;;;1.95;100.00
24825;BME280;12910;57.690;11.974;2023-03-31T03:47:14;99086.47;;;2.00;100.00
24825;BME280;12910;57.690;11.974;2023-03-31T03:49:39;99092.38;;;2.01;100.00
24825;BME280;12910;57.690;11.974;2023-03-31T03:52:05;99082.19;;;1.98;100.00
24825;BME280;12910;57.690;11.974;2023-03-31T03:54:30;99094.91;;;2.01;100.00
24825;BME280;12910;57.690;11.974;2023-03-31T03:56:56;99093.19;;;2.00;100.00
24825;BME280;12910;57.690;11.974;2023-03-31T03:59:21;99093.03;;;1.94;100.00
24825;BME280;12910;57.690;11.974;2023-03-31T04:01:48;99093.97;;;1.97;100.00
24825;BME280;12910;57.690;11.974;2023-03-31T04:04:14;99085.47;;;1.94;100.00
24825;BME280;12910;57.690;11.974;2023-03-31T04:06:40;99086.38;;;1.96;100.00
24825;BME280;12910;57.690;11.974;2023-03-31T04:09:05;99096.28;;;1.90;100.00
24825;BME280;12910;57.690;11.974;2023-03-31T04:11:31;99104.66;;;1.87;100.00
24825;BME280;12910;57.690;11.974;2023-03-31T04:13:56;99098.63;;;1.82;100.00
24825;BME280;12910;57.690;11.974;2023-03-31T04:16:21;99092.69;;;1.80;100.00
24825;BME280;12910;57.690;11.974;2023-03-31T04:18:50;99087.00;;;1.89;100.00
24825;BME280;12910;57.690;11.974;2023-03-31T04:21:21;99085.44;;;1.92;100.00
24825;BME280;12910;57.690;11.974;2023-03-31T04:23:48;99088.00;;;1.94;100.00
24825;BME280;12910;57.690;11.974;2023-03-31T04:26:16;99083.78;;;1.94;100.00
24825;BME280;12910;57.690;11.974;2023-03-31T04:28:43;99082.03;;;1.92;100.00
24825;BME280;12910;57.690;11.974;2023-03-31T04:31:12;99082.59;;;1.81;100.00
24825;BME280;12910;57.690;11.974;2023-03-31T04:33:50;99076.88;;;1.87;100.00
24825;BME280;12910;57.690;11.974;2023-03-31T04:36:16;99072.75;;;1.91;100.00
24825;BME280;12910;57.690;11.974;2023-03-31T04:38:45;99073.44;;;1.85;100.00
24825;BME280;12910;57.690;11.974;2023-03-31T04:41:15;99073.53;;;1.88;100.00
24825;BME280;12910;57.690;11.974;2023-03-31T04:43:41;99072.50;;;1.81;100.00
24825;BME280;12910;57.690;11.974;2023-03-31T04:46:06;99078.47;;;1.83;100.00
24825;BME280;12910;57.690;11.974;2023-03-31T04:48:32;99072.69;;;1.88;100.00
24825;BME280;12910;57.690;11.974;2023-03-31T04:50:57;99075.25;;;1.91;100.00
24825;BME280;12910;57.690;11.974;2023-03-31T04:53:22;99076.88;;;1.89;100.00
24825;BME280;12910;57.690;11.974;2023-03-31T04:55:48;99076.84;;;1.85;100.00
24825;BME280;12910;57.690;11.974;2023-03-31T04:58:14;99081.06;;;1.86;100.00
24825;BME280;12910;57.690;11.974;2023-03-31T05:00:40;99073.41;;;1.83;100.00
24825;BME280;12910;57.690;11.974;2023-03-31T05:03:06;99081.72;;;1.79;100.00
24825;BME280;12910;57.690;11.974;2023-03-31T05:05:31;99078.50;;;1.85;100.00
24825;BME280;12910;57.690;11.974;2023-03-31T05:07:57;99098.88;;;1.91;100.00
24825;BME280;12910;57.690;11.974;2023-03-31T05:10:22;99091.25;;;1.90;100.00
24825;BME280;12910;57.690;11.974;2023-03-31T05:12:48;99090.47;;;1.92;100.00
24825;BME280;12910;57.690;11.974;2023-03-31T05:15:13;99077.88;;;1.94;100.00
24825;BME280;12910;57.690;11.974;2023-03-31T05:17:39;99083.03;;;1.97;100.00
24825;BME280;12910;57.690;11.974;2023-03-31T05:20:05;99076.25;;;1.96;100.00
24825;BME280;12910;57.690;11.974;2023-03-31T05:22:34;99073.19;;;1.76;100.00
24825;BME280;12910;57.690;11.974;2023-03-31T05:24:59;99072.50;;;1.81;100.00
24825;BME280;12910;57.690;11.974;2023-03-31T05:27:25;99075.94;;;1.83;100.00
24825;BME280;12910;57.690;11.974;2023-03-31T05:29:50;99072.41;;;1.78;100.00
24825;BME280;12910;57.690;11.974;2023-03-31T05:32:16;99085.13;;;1.81;100.00
24825;BME280;12910;57.690;11.974;2023-03-31T05:34:41;99085.94;;;1.80;100.00
24825;BME280;12910;57.690;11.974;2023-03-31T05:37:07;99084.22;;;1.79;100.00
24825;BME280;12910;57.690;11.974;2023-03-31T05:39:32;99079.13;;;1.76;100.00
24825;BME280;12910;57.690;11.974;2023-03-31T05:41:59;99089.25;;;1.78;100.00
24825;BME280;12910;57.690;11.974;2023-03-31T05:44:24;99092.81;;;1.84;100.00
24825;BME280;12910;57.690;11.974;2023-03-31T05:46:52;99086.03;;;1.83;100.00
24825;BME280;12910;57.690;11.974;2023-03-31T05:49:17;99097.75;;;1.81;100.00
24825;BME280;12910;57.690;11.974;2023-03-31T05:51:43;99098.56;;;1.80;100.00
24825;BME280;12910;57.690;11.974;2023-03-31T05:54:08;99102.91;;;1.84;100.00
24825;BME280;12910;57.690;11.974;2023-03-31T05:56:33;99094.34;;;1.79;100.00
24825;BME280;12910;57.690;11.974;2023-03-31T05:58:59;99102.03;;;1.84;100.00
24825;BME280;12910;57.690;11.974;2023-03-31T06:01:26;99103.81;;;1.86;100.00
24825;BME280;12910;57.690;11.974;2023-03-31T06:03:51;99112.22;;;1.87;100.00
24825;BME280;12910;57.690;11.974;2023-03-31T06:06:16;99110.31;;;1.78;100.00
24825;BME280;12910;57.690;11.974;2023-03-31T06:08:43;99114.38;;;1.73;100.00
24825;BME280;12910;57.690;11.974;2023-03-31T06:11:11;99117.94;;;1.80;100.00
24825;BME280;12910;57.690;11.974;2023-03-31T06:13:38;99110.25;;;1.75;100.00
24825;BME280;12910;57.690;11.974;2023-03-31T06:16:04;99122.09;;;1.78;100.00
24825;BME280;12910;57.690;11.974;2023-03-31T06:18:32;99121.16;;;1.74;100.00
24825;BME280;12910;57.690;11.974;2023-03-31T06:20:58;99123.03;;;1.81;100.00
24825;BME280;12910;57.690;11.974;2023-03-31T06:23:24;99123.97;;;1.85;100.00
24825;BME280;12910;57.690;11.974;2023-03-31T06:25:50;99124.88;;;1.89;100.00
24825;BME280;12910;57.690;11.974;2023-03-31T06:28:16;99135.84;;;1.88;100.00
24825;BME280;12910;57.690;11.974;2023-03-31T06:30:41;99134.13;;;1.86;100.00
24825;BME280;12910;57.690;11.974;2023-03-31T06:33:07;99139.06;;;1.82;100.00
24825;BME280;12910;57.690;11.974;2023-03-31T06:35:32;99136.34;;;1.76;100.00
24825;BME280;12910;57.690;11.974;2023-03-31T06:38:01;99137.13;;;1.73;100.00
24825;BME280;12910;57.690;11.974;2023-03-31T06:40:26;99142.31;;;1.79;100.00
24825;BME280;12910;57.690;11.974;2023-03-31T06:42:52;99124.41;;;1.70;100.00
24825;BME280;12910;57.690;11.974;2023-03-31T06:45:17;99120.16;;;1.69;100.00
24825;BME280;12910;57.690;11.974;2023-03-31T06:47:43;99135.38;;;1.70;100.00
24825;BME280;12910;57.690;11.974;2023-03-31T06:50:09;99149.09;;;1.80;100.00
24825;BME280;12910;57.690;11.974;2023-03-31T06:52:35;99141.38;;;1.76;100.00
24825;BME280;12910;57.690;11.974;2023-03-31T06:55:01;99141.44;;;1.77;100.00
24825;BME280;12910;57.690;11.974;2023-03-31T06:57:27;99151.56;;;1.77;100.00
24825;BME280;12910;57.690;11.974;2023-03-31T06:59:53;99151.56;;;1.77;100.00
24825;BME280;12910;57.690;11.974;2023-03-31T07:02:18;99152.44;;;1.79;100.00
24825;BME280;12910;57.690;11.974;2023-03-31T07:04:44;99154.94;;;1.79;100.00
24825;BME280;12910;57.690;11.974;2023-03-31T07:07:09;99147.31;;;1.76;100.00
24825;BME280;12910;57.690;11.974;2023-03-31T07:09:35;99150.56;;;1.72;100.00
24825;BME280;12910;57.690;11.974;2023-03-31T07:12:01;99156.66;;;1.80;100.00
24825;BME280;12910;57.690;11.974;2023-03-31T07:14:32;99170.09;;;1.79;100.00
24825;BME280;12910;57.690;11.974;2023-03-31T07:16:58;99169.97;;;1.75;100.00
24825;BME280;12910;57.690;11.974;2023-03-31T07:19:23;99162.47;;;1.76;100.00
24825;BME280;12910;57.690;11.974;2023-03-31T07:21:49;99164.22;;;1.79;100.00
24825;BME280;12910;57.690;11.974;2023-03-31T07:24:15;99156.34;;;1.68;100.00
24825;BME280;12910;57.690;11.974;2023-03-31T07:26:41;99172.44;;;1.71;100.00
24825;BME280;12910;57.690;11.974;2023-03-31T07:29:06;99165.06;;;1.79;100.00
24825;BME280;12910;57.690;11.974;2023-03-31T07:31:32;99175.16;;;1.79;100.00
24825;BME280;12910;57.690;11.974;2023-03-31T07:33:57;99173.53;;;1.81;100.00
24825;BME280;12910;57.690;11.974;2023-03-31T07:36:23;99171.75;;;1.77;100.00
24825;BME280;12910;57.690;11.974;2023-03-31T07:38:48;99175.94;;;1.77;100.00
24825;BME280;12910;57.690;11.974;2023-03-31T07:41:16;99169.25;;;1.77;100.00
24825;BME280;12910;57.690;11.974;2023-03-31T07:43:42;99185.38;;;1.82;100.00
24825;BME280;12910;57.690;11.974;2023-03-31T07:46:20;99178.78;;;1.88;100.00
24825;BME280;12910;57.690;11.974;2023-03-31T07:48:46;99170.09;;;1.79;100.00
24825;BME280;12910;57.690;11.974;2023-03-31T07:51:14;99182.19;;;1.90;100.00
24825;BME280;12910;57.690;11.974;2023-03-31T07:53:40;99178.94;;;1.94;100.00
24825;BME280;12910;57.690;11.974;2023-03-31T07:56:05;99172.75;;;1.84;100.00
24825;BME280;12910;57.690;11.974;2023-03-31T07:58:31;99177.88;;;1.85;100.00
24825;BME280;12910;57.690;11.974;2023-03-31T08:00:56;99179.66;;;1.90;100.00
24825;BME280;12910;57.690;11.974;2023-03-31T08:03:22;99178.78;;;1.88;100.00
24825;BME280;12910;57.690;11.974;2023-03-31T08:05:50;99182.19;;;1.90;100.00
24825;BME280;12910;57.690;11.974;2023-03-31T08:08:15;99178.00;;;1.90;100.00
24825;BME280;12910;57.690;11.974;2023-03-31T08:10:41;99183.75;;;1.84;100.00
24825;BME280;12910;57.690;11.974;2023-03-31T08:13:06;99169.63;;;1.91;100.00
24825;BME280;12910;57.690;11.974;2023-03-31T08:15:32;99180.34;;;1.84;100.00
24825;BME280;12910;57.690;11.974;2023-03-31T08:17:58;99172.06;;;1.90;100.00
24825;BME280;12910;57.690;11.974;2023-03-31T08:20:23;99179.50;;;1.83;100.00
24825;BME280;12910;57.690;11.974;2023-03-31T08:22:49;99181.16;;;1.83;100.00
24825;BME280;12910;57.690;11.974;2023-03-31T08:25:15;99179.59;;;1.86;100.00
24825;BME280;12910;57.690;11.974;2023-03-31T08:27:40;99178.84;;;1.91;100.00
24825;BME280;12910;57.690;11.974;2023-03-31T08:30:09;99183.97;;;1.92;100.00
24825;BME280;12910;57.690;11.974;2023-03-31T08:32:37;99182.28;;;1.93;100.00
24825;BME280;12910;57.690;11.974;2023-03-31T08:35:03;99187.34;;;1.93;100.00
24825;BME280;12910;57.690;11.974;2023-03-31T08:37:28;99189.88;;;1.94;100.00
24825;BME280;12910;57.690;11.974;2023-03-31T08:39:54;99179.63;;;1.88;100.00
24825;BME280;12910;57.690;11.974;2023-03-31T08:42:38;99182.13;;;1.86;100.00
24825;BME280;12910;57.690;11.974;2023-03-31T08:47:33;99193.94;;;1.88;100.00
24825;BME280;12910;57.690;11.974;2023-03-31T08:50:12;99178.78;;;1.88;100.00
24825;BME280;12910;57.690;11.974;2023-03-31T08:52:51;99177.78;;;1.82;100.00
24825;BME280;12910;57.690;11.974;2023-03-31T08:55:24;99190.56;;;1.89;100.00
24825;BME280;12910;57.690;11.974;2023-03-31T08:58:28;99184.59;;;1.85;100.00
24825;BME280;12910;57.690;11.974;2023-03-31T09:15:09;99192.22;;;1.86;100.00
24825;BME280;12910;57.690;11.974;2023-03-31T09:17:41;99178.50;;;1.78;100.00
24825;BME280;12910;57.690;11.974;2023-03-31T09:20:26;99197.28;;;1.86;100.00
24825;BME280;12910;57.690;11.974;2023-03-31T09:23:00;99201.28;;;1.80;100.00
24825;BME280;12910;57.690;11.974;2023-03-31T09:25:33;99207.28;;;1.83;100.00
24825;BME280;12910;57.690;11.974;2023-03-31T09:28:02;99194.09;;;1.63;100.00
24825;BME280;12910;57.690;11.974;2023-03-31T09:30:30;99198.44;;;1.69;100.00
24825;BME280;12910;57.690;11.974;2023-03-31T09:33:28;99206.75;;;1.65;100.00
24825;BME280;12910;57.690;11.974;2023-03-31T09:36:01;99201.81;;;1.68;100.00
24825;BME280;12910;57.690;11.974;2023-03-31T09:38:32;99203.22;;;1.60;100.00
24825;BME280;12910;57.690;11.974;2023-03-31T09:41:02;99211.97;;;1.71;100.00
24825;BME280;12910;57.690;11.974;2023-03-31T09:43:29;99202.38;;;1.59;100.00
24825;BME280;12910;57.690;11.974;2023-03-31T09:45:57;99208.22;;;1.57;100.00
24825;BME280;12910;57.690;11.974;2023-03-31T09:48:29;99202.41;;;1.61;100.00
24825;BME280;12910;57.690;11.974;2023-03-31T09:51:06;99211.72;;;1.62;100.00
24825;BME280;12910;57.690;11.974;2023-03-31T09:53:52;99208.50;;;1.67;100.00
24825;BME280;12910;57.690;11.974;2023-03-31T09:59:18;99215.16;;;1.64;100.00
24825;BME280;12910;57.690;11.974;2023-03-31T10:01:55;99223.50;;;1.61;100.00
24825;BME280;12910;57.690;11.974;2023-03-31T10:04:33;99222.81;;;1.67;100.00
24825;BME280;12910;57.690;11.974;2023-03-31T10:06:59;99218.59;;;1.67;100.00
24825;BME280;12910;57.690;11.974;2023-03-31T10:09:30;99225.94;;;1.60;100.00
24825;BME280;12910;57.690;11.974;2023-03-31T10:12:05;99221.69;;;1.57;100.00
24825;BME280;12910;57.690;11.974;2023-03-31T10:14:39;99231.84;;;1.59;100.00
24825;BME280;12910;57.690;11.974;2023-03-31T10:17:05;99233.50;;;1.58;100.00
24825;BME280;12910;57.690;11.974;2023-03-31T10:19:35;99224.19;;;1.57;100.00
24825;BME280;12910;57.690;11.974;2023-03-31T10:22:14;99234.94;;;1.50;100.00
24825;BME280;12910;57.690;11.974;2023-03-31T10:24:43;99237.84;;;1.62;100.00
24825;BME280;12910;57.690;11.974;2023-03-31T10:27:29;99243.91;;;1.69;100.00
24825;BME280;12910;57.690;11.974;2023-03-31T10:29:57;99241.44;;;1.70;100.00
24825;BME280;12910;57.690;11.974;2023-03-31T10:32:26;99226.88;;;1.62;100.00
24825;BME280;12910;57.690;11.974;2023-03-31T10:34:54;99227.91;;;1.68;100.00
24825;BME280;12910;57.690;11.974;2023-03-31T10:37:22;99245.81;;;1.76;100.00
24825;BME280;12910;57.690;11.974;2023-03-31T10:39:59;99237.22;;;1.71;100.00
24825;BME280;12910;57.690;11.974;2023-03-31T10:42:26;99232.91;;;1.67;100.00
24825;BME280;12910;57.690;11.974;2023-03-31T10:47:40;99251.75;;;1.78;100.00
24825;BME280;12910;57.690;11.974;2023-03-31T10:50:13;99247.44;;;1.74;100.00
24825;BME280;12910;57.690;11.974;2023-03-31T10:52:44;99255.16;;;1.79;100.00
24825;BME280;12910;57.690;11.974;2023-03-31T10:55:22;99253.59;;;1.84;100.00
24825;BME280;12910;57.690;11.974;2023-03-31T10:58:05;99251.81;;;1.80;100.00
24825;BME280;12910;57.690;11.974;2023-03-31T11:00:35;99254.59;;;1.89;100.00
24825;BME280;12910;57.690;11.974;2023-03-31T11:03:11;99261.31;;;1.89;100.00
24825;BME280;12910;57.690;11.974;2023-03-31T11:05:56;99259.69;;;1.91;100.00
24825;BME280;12910;57.690;11.974;2023-03-31T11:16:32;99275.72;;;1.91;100.00
24825;BME280;12910;57.690;11.974;2023-03-31T11:22:06;99267.50;;;1.98;100.00
24825;BME280;12910;57.690;11.974;2023-03-31T11:24:43;99271.88;;;2.04;100.00
24825;BME280;12910;57.690;11.974;2023-03-31T11:30:12;99285.34;;;2.05;100.00
24825;BME280;12910;57.690;11.974;2023-03-31T11:32:46;99277.78;;;2.05;100.00
24825;BME280;12910;57.690;11.974;2023-03-31T11:35:28;99287.84;;;2.03;100.00
24825;BME280;12910;57.690;11.974;2023-03-31T11:38:26;99288.66;;;2.02;100.00
24825;BME280;12910;57.690;11.974;2023-03-31T11:41:08;99294.38;;;1.96;100.00
24825;BME280;12910;57.690;11.974;2023-03-31T11:43:41;99300.47;;;2.03;100.00
24825;BME280;12910;57.690;11.974;2023-03-31T11:46:26;99302.19;;;2.04;100.00
24825;BME280;12910;57.690;11.974;2023-03-31T11:51:50;99304.53;;;1.98;100.00
24825;BME280;12910;57.690;11.974;2023-03-31T11:54:24;99308.88;;;2.02;100.00
24825;BME280;12910;57.690;11.974;2023-03-31T11:56:53;99291.34;;;1.79;100.00
24825;BME280;12910;57.690;11.974;2023-03-31T11:59:21;99313.94;;;2.02;100.00
24825;BME280;12910;57.690;11.974;2023-03-31T12:02:18;99289.31;;;1.95;100.00
24825;BME280;12910;57.690;11.974;2023-03-31T12:04:50;99298.47;;;1.91;100.00
24825;BME280;12910;57.690;11.974;2023-03-31T12:07:26;99305.44;;;2.00;100.00
24825;BME280;12910;57.690;11.974;2023-03-31T12:15:36;99301.56;;;1.82;100.00
24825;BME280;12910;57.690;11.974;2023-03-31T12:18:17;99305.78;;;1.82;100.00
24825;BME280;12910;57.690;11.974;2023-03-31T12:20:50;99309.03;;;1.79;100.00
24825;BME280;12910;57.690;11.974;2023-03-31T12:23:19;99306.63;;;1.82;100.00
24825;BME280;12910;57.690;11.974;2023-03-31T12:28:24;99315.00;;;1.81;100.00
24825;BME280;12910;57.690;11.974;2023-03-31T12:30:53;99293.81;;;1.76;100.00
24825;BME280;12910;57.690;11.974;2023-03-31T12:33:26;99302.38;;;1.81;100.00
24825;BME280;12910;57.690;11.974;2023-03-31T12:56:00;99300.75;;;1.83;100.00
24825;BME280;12910;57.690;11.974;2023-03-31T13:01:11;99294.34;;;1.66;100.00
24825;BME280;12910;57.690;11.974;2023-03-31T13:03:46;99306.16;;;1.67;100.00
24825;BME280;12910;57.690;11.974;2023-03-31T13:09:43;99304.47;;;1.67;100.00
24825;BME280;12910;57.690;11.974;2023-03-31T13:11:49;99299.81;;;1.80;100.00
24825;BME280;12910;57.690;11.974;2023-03-31T13:14:22;99299.38;;;1.66;100.00
24825;BME280;12910;57.690;11.974;2023-03-31T13:16:49;99286.81;;;1.67;100.00
24825;BME280;12910;57.690;11.974;2023-03-31T13:19:32;99290.34;;;1.73;100.00
24825;BME280;12910;57.690;11.974;2023-03-31T13:22:00;99293.97;;;1.82;100.00
24825;BME280;12910;57.690;11.974;2023-03-31T13:24:28;99297.22;;;1.78;100.00
24825;BME280;12910;57.690;11.974;2023-03-31T13:26:56;99291.56;;;1.85;100.00
24825;BME280;12910;57.690;11.974;2023-03-31T13:29:37;99292.28;;;1.83;100.00
24825;BME280;12910;57.690;11.974;2023-03-31T13:32:06;99287.41;;;1.59;100.00
24825;BME280;12910;57.690;11.974;2023-03-31T13:34:42;99295.59;;;1.80;100.00
24825;BME280;12910;57.690;11.974;2023-03-31T13:40:12;99293.88;;;1.79;100.00
24825;BME280;12910;57.690;11.974;2023-03-31T13:43:09;99300.03;;;1.88;100.00
24825;BME280;12910;57.690;11.974;2023-03-31T13:45:56;99303.72;;;1.99;100.00
24825;BME280;12910;57.690;11.974;2023-03-31T13:48:50;99301.94;;;1.95;100.00
24825;BME280;12910;57.690;11.974;2023-03-31T13:54:31;99303.91;;;2.05;100.00
24825;BME280;12910;57.690;11.974;2023-03-31T13:57:22;99297.84;;;2.00;100.00
24825;BME280;12910;57.690;11.974;2023-03-31T14:03:12;99298.66;;;1.99;100.00
24825;BME280;12910;57.690;11.974;2023-03-31T14:05:58;99307.16;;;2.01;100.00
24825;BME280;12910;57.690;11.974;2023-03-31T14:11:20;99306.47;;;2.07;100.00
24825;BME280;12910;57.690;11.974;2023-03-31T14:14:06;99305.81;;;2.12;100.00
24825;BME280;12910;57.690;11.974;2023-03-31T14:16:42;99304.72;;;2.04;100.00
24825;BME280;12910;57.690;11.974;2023-03-31T14:24:50;99298.88;;;2.05;100.00
24825;BME280;12910;57.690;11.974;2023-03-31T14:38:19;99314.19;;;2.11;100.00
24825;BME280;12910;57.690;11.974;2023-03-31T14:40:47;99307.31;;;2.07;100.00
24825;BME280;12910;57.690;11.974;2023-03-31T14:43:22;99297.16;;;2.04;100.00
24825;BME280;12910;57.690;11.974;2023-03-31T14:46:00;99309.00;;;2.07;100.00
24825;BME280;12910;57.690;11.974;2023-03-31T14:48:28;99296.94;;;1.98;100.00
24825;BME280;12910;57.690;11.974;2023-03-31T14:51:00;99301.31;;;2.03;100.00
24825;BME280;12910;57.690;11.974;2023-03-31T14:53:26;99308.16;;;2.06;100.00
24825;BME280;12910;57.690;11.974;2023-03-31T14:56:16;99313.25;;;2.08;100.00
24825;BME280;12910;57.690;11.974;2023-03-31T14:58:49;99316.75;;;2.13;100.00
24825;BME280;12910;57.690;11.974;2023-03-31T15:01:20;99305.03;;;2.15;100.00
24825;BME280;12910;57.690;11.974;2023-03-31T15:03:48;99316.84;;;2.16;100.00
24825;BME280;12910;57.690;11.974;2023-03-31T15:06:14;99315.09;;;2.13;100.00
24825;BME280;12910;57.690;11.974;2023-03-31T15:08:40;99307.53;;;2.13;100.00
24825;BME280;12910;57.690;11.974;2023-03-31T15:11:14;99317.13;;;2.25;100.00
24825;BME280;12910;57.690;11.974;2023-03-31T15:13:46;99288.63;;;2.00;100.00
24825;BME280;12910;57.690;11.974;2023-03-31T15:18:56;99317.44;;;2.07;100.00
24825;BME280;12910;57.690;11.974;2023-03-31T15:21:24;99323.41;;;2.09;100.00
24825;BME280;12910;57.690;11.974;2023-03-31T15:23:59;99311.63;;;2.10;100.00
24825;BME280;12910;57.690;11.974;2023-03-31T15:26:30;99329.47;;;2.14;100.00
24825;BME280;12910;57.690;11.974;2023-03-31T15:29:02;99332.03;;;2.16;100.00
24825;BME280;12910;57.690;11.974;2023-03-31T15:31:29;99328.72;;;2.18;100.00
24825;BME280;12910;57.690;11.974;2023-03-31T15:33:56;99332.94;;;2.18;100.00
24825;BME280;12910;57.690;11.974;2023-03-31T15:36:21;99348.13;;;2.20;100.00
24825;BME280;12910;57.690;11.974;2023-03-31T15:38:54;99344.91;;;2.24;100.00
24825;BME280;12910;57.690;11.974;2023-03-31T15:41:21;99349.13;;;2.25;100.00
24825;BME280;12910;57.690;11.974;2023-03-31T15:44:01;99345.66;;;2.21;100.00
24825;BME280;12910;57.690;11.974;2023-03-31T15:49:04;99348.50;;;2.03;100.00